createdAt,value
2019-04-30T00:00:06.348Z,14.15
2019-04-30T00:02:56.952Z,14.14
2019-04-30T00:05:28.345Z,14.10
2019-04-30T00:07:59.746Z,14.09
2019-04-30T00:10:36.832Z,14.10
2019-04-30T00:13:06.107Z,14.12
2019-04-30T00:15:37.437Z,14.14
2019-04-30T00:18:10.447Z,14.15
2019-04-30T00:20:41.638Z,14.12
2019-04-30T00:23:13.728Z,14.11
2019-04-30T00:25:46.014Z,14.12
2019-04-30T00:28:17.244Z,14.13
2019-04-30T00:30:49.644Z,14.14
2019-04-30T00:33:22.337Z,14.15
2019-04-30T00:35:57.852Z,14.15
2019-04-30T00:38:29.585Z,14.17
2019-04-30T00:41:01.958Z,14.18
2019-04-30T00:43:35.368Z,14.19
2019-04-30T00:46:06.537Z,14.16
2019-04-30T00:48:37.720Z,14.16
2019-04-30T00:51:17.907Z,14.17
2019-04-30T00:53:43.842Z,14.14
2019-04-30T00:56:15.826Z,14.14
2019-04-30T00:58:48.221Z,14.14
2019-04-30T01:01:21.225Z,14.16
2019-04-30T01:04:06.277Z,14.16
2019-04-30T01:06:37.958Z,14.17
2019-04-30T01:09:10.153Z,14.18
2019-04-30T01:11:46.746Z,14.15
2019-04-30T01:14:14.686Z,14.18
2019-04-30T01:16:46.133Z,14.12
2019-04-30T01:19:29.153Z,14.14
2019-04-30T01:21:51.344Z,14.13
2019-04-30T01:24:23.599Z,14.17
2019-04-30T01:27:02.076Z,14.18
2019-04-30T01:29:31.170Z,14.24
2019-04-30T01:32:01.908Z,14.26
2019-04-30T01:34:34.017Z,14.28
2019-04-30T01:37:05.369Z,14.27
2019-04-30T01:39:36.686Z,14.27
2019-04-30T01:42:11.401Z,14.26
2019-04-30T01:44:43.426Z,14.23
2019-04-30T01:47:14.480Z,14.27
2019-04-30T01:49:45.643Z,14.28
2019-04-30T01:52:17.176Z,14.29
2019-04-30T01:54:49.045Z,14.30
2019-04-30T01:57:25.222Z,14.27
2019-04-30T02:00:07.100Z,14.28
2019-04-30T02:02:40.204Z,14.30
2019-04-30T02:05:11.604Z,14.29
2019-04-30T02:07:42.915Z,14.31
2019-04-30T02:10:14.474Z,14.28
2019-04-30T02:12:45.551Z,14.25
2019-04-30T02:15:16.797Z,14.19
2019-04-30T02:17:50.251Z,14.24
2019-04-30T02:20:20.793Z,14.26
2019-04-30T02:22:51.859Z,14.28
2019-04-30T02:25:23.220Z,14.30
2019-04-30T02:27:55.365Z,14.26
2019-04-30T02:30:30.471Z,14.25
2019-04-30T02:33:01.141Z,14.24
2019-04-30T02:35:36.721Z,14.24
2019-04-30T02:38:21.027Z,14.22
2019-04-30T02:40:52.180Z,14.16
2019-04-30T02:43:23.433Z,14.21
2019-04-30T02:45:55.750Z,14.24
2019-04-30T02:48:29.267Z,14.25
2019-04-30T02:51:00.547Z,14.27
2019-04-30T02:53:53.361Z,14.28
2019-04-30T02:56:26.991Z,14.27
2019-04-30T02:59:00.356Z,14.23
2019-04-30T03:01:31.999Z,14.19
2019-04-30T03:04:03.439Z,14.21
2019-04-30T03:06:34.588Z,14.21
2019-04-30T03:09:06.503Z,14.24
2019-04-30T03:11:40.575Z,14.25
2019-04-30T03:14:11.196Z,14.28
2019-04-30T03:16:53.513Z,14.28
2019-04-30T03:19:29.488Z,14.30
2019-04-30T03:22:16.568Z,14.24
2019-04-30T03:24:50.152Z,14.24
2019-04-30T03:27:24.371Z,14.21
2019-04-30T03:29:54.519Z,14.25
2019-04-30T03:32:25.678Z,14.28
2019-04-30T03:34:56.873Z,14.30
2019-04-30T03:37:29.427Z,14.35
2019-04-30T03:40:00.848Z,14.35
2019-04-30T03:42:32.440Z,14.38
2019-04-30T03:45:05.419Z,14.40
2019-04-30T03:47:36.868Z,14.42
2019-04-30T03:50:09.299Z,14.45
2019-04-30T03:52:40.839Z,14.45
2019-04-30T03:55:12.041Z,14.47
2019-04-30T03:57:43.565Z,14.49
2019-04-30T04:00:16.509Z,14.51
2019-04-30T04:02:49.875Z,14.56
2019-04-30T04:05:22.235Z,14.56
2019-04-30T04:08:13.004Z,14.52
2019-04-30T04:10:46.070Z,14.50
2019-04-30T04:13:19.746Z,14.53
2019-04-30T04:15:51.571Z,14.58
2019-04-30T04:18:22.903Z,14.63
2019-04-30T04:21:07.460Z,14.65
2019-04-30T04:23:32.317Z,14.67
2019-04-30T04:26:00.064Z,14.70
2019-04-30T04:28:31.425Z,14.71
2019-04-30T04:31:02.756Z,14.74
2019-04-30T04:33:34.077Z,14.73
2019-04-30T04:36:05.264Z,14.80
2019-04-30T04:38:36.583Z,14.88
2019-04-30T04:41:10.273Z,14.87
2019-04-30T04:43:40.991Z,14.91
2019-04-30T04:46:12.291Z,14.95
2019-04-30T04:48:43.510Z,14.90
2019-04-30T04:51:31.404Z,14.92
2019-04-30T04:53:49.957Z,14.94
2019-04-30T04:56:20.458Z,15.01
2019-04-30T04:58:51.711Z,15.06
2019-04-30T05:01:22.886Z,15.08
2019-04-30T05:03:54.345Z,15.09
2019-04-30T05:06:25.587Z,15.18
2019-04-30T05:08:56.839Z,15.33
2019-04-30T05:11:29.379Z,15.47
2019-04-30T05:14:01.959Z,15.61
2019-04-30T05:16:33.125Z,15.71
2019-04-30T05:19:04.394Z,15.77
2019-04-30T05:21:42.767Z,15.82
2019-04-30T05:24:09.107Z,15.93
2019-04-30T05:26:41.457Z,16.06
2019-04-30T05:29:12.609Z,16.17
2019-04-30T05:31:43.955Z,16.21
2019-04-30T05:34:15.211Z,16.29
2019-04-30T05:36:49.007Z,16.39
2019-04-30T05:39:20.506Z,16.52
2019-04-30T05:41:51.618Z,16.58
2019-04-30T05:44:23.015Z,16.62
2019-04-30T05:46:54.305Z,16.64
2019-04-30T05:49:28.746Z,16.58
2019-04-30T05:51:59.903Z,16.51
2019-04-30T05:54:31.218Z,16.49
2019-04-30T05:57:02.357Z,16.42
2019-04-30T05:59:33.538Z,16.42
2019-04-30T06:02:04.791Z,16.43
2019-04-30T06:04:36.097Z,16.46
2019-04-30T06:07:08.630Z,16.49
2019-04-30T06:09:41.977Z,16.53
2019-04-30T06:12:20.772Z,16.57
2019-04-30T06:14:55.721Z,16.60
2019-04-30T06:17:31.074Z,16.65
2019-04-30T06:20:02.562Z,16.70
2019-04-30T06:22:33.809Z,16.77
2019-04-30T06:25:06.260Z,16.88
2019-04-30T06:27:38.796Z,16.99
2019-04-30T06:30:12.134Z,17.14
2019-04-30T06:32:43.290Z,17.35
2019-04-30T06:35:14.579Z,17.55
2019-04-30T06:37:46.000Z,17.70
2019-04-30T06:40:19.428Z,17.82
2019-04-30T06:42:50.148Z,17.93
2019-04-30T06:45:21.540Z,18.07
2019-04-30T06:47:52.717Z,18.20
2019-04-30T06:50:24.099Z,18.35
2019-04-30T06:52:58.741Z,18.50
2019-04-30T06:55:30.840Z,18.65
2019-04-30T06:58:12.026Z,18.80
2019-04-30T07:00:39.974Z,19.02
2019-04-30T07:03:11.243Z,19.27
2019-04-30T07:05:42.736Z,19.62
2019-04-30T07:08:39.508Z,20.04
2019-04-30T07:11:21.653Z,20.49
2019-04-30T07:13:53.007Z,20.99
2019-04-30T07:16:24.494Z,21.34
2019-04-30T07:18:55.829Z,21.51
2019-04-30T07:21:29.471Z,21.90
2019-04-30T07:24:00.025Z,21.90
2019-04-30T07:26:31.426Z,22.23
2019-04-30T07:29:02.821Z,22.65
2019-04-30T07:31:34.027Z,22.99
2019-04-30T07:34:05.361Z,23.27
2019-04-30T07:36:46.819Z,23.56
2019-04-30T07:39:10.074Z,23.88
2019-04-30T07:41:41.380Z,24.04
2019-04-30T07:44:29.474Z,24.12
2019-04-30T07:46:45.592Z,24.28
2019-04-30T07:49:16.858Z,24.37
2019-04-30T07:51:51.319Z,24.45
2019-04-30T07:54:21.028Z,24.58
2019-04-30T07:56:52.262Z,24.68
2019-04-30T07:59:23.705Z,24.74
2019-04-30T08:02:06.476Z,24.79
2019-04-30T08:04:35.134Z,24.80
2019-04-30T08:07:06.496Z,24.82
2019-04-30T08:09:41.910Z,24.80
2019-04-30T08:12:11.907Z,24.77
2019-04-30T08:14:43.511Z,24.80
2019-04-30T08:17:14.879Z,24.75
2019-04-30T08:19:46.046Z,24.68
2019-04-30T08:22:19.451Z,24.68
2019-04-30T08:24:50.252Z,24.51
2019-04-30T08:27:21.405Z,24.44
2019-04-30T08:29:52.548Z,24.40
2019-04-30T08:32:23.895Z,24.35
2019-04-30T08:34:55.242Z,24.31
2019-04-30T08:37:26.455Z,24.31
2019-04-30T08:39:59.767Z,24.27
2019-04-30T08:42:33.891Z,24.14
2019-04-30T08:45:04.528Z,24.06
2019-04-30T08:47:36.033Z,24.07
2019-04-30T08:50:09.354Z,24.10
2019-04-30T08:52:40.361Z,24.10
2019-04-30T08:55:16.455Z,24.04
2019-04-30T08:57:44.517Z,24.05
2019-04-30T09:00:15.621Z,24.06
2019-04-30T09:02:49.033Z,24.11
2019-04-30T09:05:28.157Z,24.17
2019-04-30T09:07:59.922Z,24.25
2019-04-30T09:10:31.218Z,24.31
2019-04-30T09:13:02.558Z,24.34
2019-04-30T09:15:34.929Z,24.26
2019-04-30T09:18:12.447Z,24.11
2019-04-30T09:20:40.972Z,23.91
2019-04-30T09:23:12.250Z,23.71
2019-04-30T09:25:43.439Z,23.54
2019-04-30T09:28:14.855Z,23.48
2019-04-30T09:30:46.017Z,23.41
2019-04-30T09:33:19.039Z,23.28
2019-04-30T09:35:50.205Z,23.32
2019-04-30T09:38:21.271Z,23.51
2019-04-30T09:40:52.341Z,23.70
2019-04-30T09:43:23.457Z,23.85
2019-04-30T09:45:54.507Z,23.99
2019-04-30T09:48:25.706Z,23.97
2019-04-30T09:50:57.255Z,24.04
2019-04-30T09:53:29.686Z,24.16
2019-04-30T09:56:01.667Z,24.17
2019-04-30T09:58:33.003Z,24.06
2019-04-30T10:01:04.589Z,23.92
2019-04-30T10:03:37.135Z,23.75
2019-04-30T10:06:09.061Z,23.60
2019-04-30T10:08:48.419Z,23.54
2019-04-30T10:11:17.763Z,23.45
2019-04-30T10:13:48.771Z,23.40
2019-04-30T10:16:21.563Z,23.54
2019-04-30T10:18:52.896Z,23.59
2019-04-30T10:21:24.001Z,23.47
2019-04-30T10:24:10.016Z,23.38
2019-04-30T10:26:28.055Z,23.28
2019-04-30T10:28:59.321Z,23.18
2019-04-30T10:31:30.330Z,23.18
2019-04-30T10:34:01.546Z,23.22
2019-04-30T10:36:32.701Z,23.35
2019-04-30T10:39:05.609Z,23.57
2019-04-30T10:41:39.526Z,23.72
2019-04-30T10:44:10.942Z,23.86
2019-04-30T10:46:42.085Z,23.82
2019-04-30T10:49:13.437Z,23.75
2019-04-30T10:51:44.415Z,23.67
2019-04-30T10:54:23.983Z,23.57
2019-04-30T10:56:49.079Z,23.48
2019-04-30T10:59:21.287Z,23.45
2019-04-30T11:01:52.276Z,23.37
2019-04-30T11:04:23.477Z,23.27
2019-04-30T11:06:54.625Z,23.21
2019-04-30T11:09:29.285Z,23.25
2019-04-30T11:12:03.065Z,23.27
2019-04-30T11:14:33.635Z,23.28
2019-04-30T11:17:04.961Z,23.32
2019-04-30T11:19:36.638Z,23.31
2019-04-30T11:22:08.500Z,23.34
2019-04-30T11:24:54.025Z,23.31
2019-04-30T11:27:13.495Z,23.34
2019-04-30T11:29:45.268Z,23.34
2019-04-30T11:32:18.578Z,23.37
2019-04-30T11:34:49.980Z,23.39
2019-04-30T11:37:21.269Z,23.37
2019-04-30T11:39:52.348Z,23.33
2019-04-30T11:42:24.761Z,23.32
2019-04-30T11:44:58.644Z,23.31
2019-04-30T11:47:31.566Z,23.31
2019-04-30T11:50:02.775Z,23.27
2019-04-30T11:52:34.148Z,23.24
2019-04-30T11:55:09.506Z,23.20
2019-04-30T11:57:40.459Z,23.13
2019-04-30T12:00:14.842Z,23.03
2019-04-30T12:02:45.937Z,23.01
2019-04-30T12:05:20.542Z,22.98
2019-04-30T12:07:52.609Z,22.99
2019-04-30T12:10:25.482Z,22.97
2019-04-30T12:12:58.588Z,22.99
2019-04-30T12:15:30.342Z,22.98
2019-04-30T12:18:02.676Z,22.98
2019-04-30T12:20:34.111Z,22.96
2019-04-30T12:23:05.370Z,22.93
2019-04-30T12:25:36.627Z,22.91
2019-04-30T12:28:09.509Z,22.90
2019-04-30T12:30:40.770Z,22.85
2019-04-30T12:33:12.079Z,22.78
2019-04-30T12:35:44.319Z,22.74
2019-04-30T12:38:15.276Z,22.70
2019-04-30T12:40:46.561Z,22.67
2019-04-30T12:43:19.243Z,22.63
2019-04-30T12:46:02.290Z,22.61
2019-04-30T12:48:24.936Z,22.60
2019-04-30T12:51:13.568Z,22.61
2019-04-30T12:53:52.237Z,22.64
2019-04-30T12:56:30.845Z,22.64
2019-04-30T12:59:02.142Z,22.62
2019-04-30T13:01:34.212Z,22.58
2019-04-30T13:04:05.614Z,22.54
2019-04-30T13:06:37.556Z,22.48
2019-04-30T13:09:10.759Z,22.37
2019-04-30T13:11:43.128Z,22.29
2019-04-30T13:14:15.323Z,22.22
2019-04-30T13:16:48.958Z,22.12
2019-04-30T13:19:19.862Z,22.10
2019-04-30T13:21:51.259Z,21.99
2019-04-30T13:24:22.495Z,21.93
2019-04-30T13:26:54.404Z,21.85
2019-04-30T13:29:30.416Z,21.81
2019-04-30T13:32:01.665Z,21.78
2019-04-30T13:34:44.158Z,21.78
2019-04-30T13:37:15.258Z,21.80
2019-04-30T13:39:57.754Z,21.80
2019-04-30T13:42:33.522Z,21.79
2019-04-30T13:45:06.395Z,21.76
2019-04-30T13:47:39.078Z,21.72
2019-04-30T13:50:10.498Z,21.67
2019-04-30T13:52:41.717Z,21.64
2019-04-30T13:55:15.207Z,21.62
2019-04-30T13:57:46.771Z,21.59
2019-04-30T14:00:22.397Z,21.54
2019-04-30T14:02:55.132Z,21.50
2019-04-30T14:05:26.355Z,21.48
2019-04-30T14:08:09.469Z,21.46
2019-04-30T14:10:41.889Z,21.45
2019-04-30T14:13:13.280Z,21.43
2019-04-30T14:15:46.100Z,21.39
2019-04-30T14:18:28.509Z,21.27
2019-04-30T14:20:51.036Z,21.22
2019-04-30T14:23:22.367Z,21.13
2019-04-30T14:25:56.726Z,21.20
2019-04-30T14:28:26.372Z,21.18
2019-04-30T14:30:57.559Z,21.12
2019-04-30T14:33:29.351Z,21.12
2019-04-30T14:36:00.933Z,21.05
2019-04-30T14:38:32.153Z,21.05
2019-04-30T14:41:03.938Z,20.99
2019-04-30T14:43:46.820Z,20.98
2019-04-30T14:46:39.657Z,20.98
2019-04-30T14:49:32.798Z,20.86
2019-04-30T14:52:05.014Z,20.75
2019-04-30T14:54:46.446Z,20.72
2019-04-30T14:57:19.124Z,20.50
2019-04-30T14:59:51.876Z,20.57
2019-04-30T15:02:36.514Z,20.57
2019-04-30T15:05:08.969Z,20.53
2019-04-30T15:07:40.375Z,20.51
2019-04-30T15:10:12.494Z,20.48
2019-04-30T15:12:43.878Z,20.43
2019-04-30T15:15:15.216Z,20.39
2019-04-30T15:17:46.401Z,20.37
2019-04-30T15:20:19.562Z,20.32
2019-04-30T15:22:52.099Z,20.31
2019-04-30T15:25:23.410Z,20.27
2019-04-30T15:27:54.603Z,20.21
2019-04-30T15:30:25.753Z,20.18
2019-04-30T15:33:13.677Z,20.13
2019-04-30T15:35:44.831Z,20.07
2019-04-30T15:38:16.135Z,20.00
2019-04-30T15:40:47.396Z,19.93
2019-04-30T15:43:18.636Z,19.87
2019-04-30T15:45:49.811Z,19.73
2019-04-30T15:48:21.000Z,19.68
2019-04-30T15:50:52.274Z,19.60
2019-04-30T15:53:23.415Z,19.57
2019-04-30T15:55:54.600Z,19.51
2019-04-30T15:58:30.319Z,19.43
2019-04-30T16:01:00.249Z,19.38
2019-04-30T16:03:33.013Z,19.31
2019-04-30T16:06:04.279Z,19.26
2019-04-30T16:08:45.727Z,19.19
2019-04-30T16:11:19.499Z,19.12
2019-04-30T16:14:08.498Z,19.08
2019-04-30T16:16:41.267Z,19.03
2019-04-30T16:19:12.467Z,18.95
2019-04-30T16:21:43.635Z,18.93
2019-04-30T16:24:14.921Z,18.89
2019-04-30T16:26:49.529Z,18.86
2019-04-30T16:29:18.822Z,18.80
2019-04-30T16:31:50.135Z,18.80
2019-04-30T16:34:21.166Z,18.73
2019-04-30T16:36:52.312Z,18.71
2019-04-30T16:39:23.389Z,18.71
2019-04-30T16:41:54.482Z,18.53
2019-04-30T16:44:25.534Z,18.54
2019-04-30T16:46:56.621Z,18.60
2019-04-30T16:49:29.011Z,18.65
2019-04-30T16:52:01.580Z,18.63
2019-04-30T16:54:32.663Z,18.65
2019-04-30T16:57:06.740Z,18.66
2019-04-30T16:59:38.927Z,18.68
2019-04-30T17:02:12.083Z,18.65
2019-04-30T17:04:54.219Z,18.62
2019-04-30T17:07:28.852Z,18.55
2019-04-30T17:10:01.680Z,18.49
2019-04-30T17:12:34.487Z,18.42
2019-04-30T17:15:22.366Z,18.35
2019-04-30T17:17:53.386Z,18.32
2019-04-30T17:20:24.597Z,18.27
2019-04-30T17:22:56.759Z,18.17
2019-04-30T17:25:27.938Z,18.09
2019-04-30T17:28:01.401Z,18.06
2019-04-30T17:30:32.157Z,18.04
2019-04-30T17:33:03.171Z,18.03
2019-04-30T17:35:34.425Z,18.03
2019-04-30T17:38:05.926Z,17.98
2019-04-30T17:40:38.858Z,17.94
2019-04-30T17:43:09.880Z,17.90
2019-04-30T17:45:40.934Z,17.83
2019-04-30T17:48:13.157Z,17.73
2019-04-30T17:50:44.217Z,17.70
2019-04-30T17:53:15.354Z,17.68
2019-04-30T17:55:46.393Z,17.66
2019-04-30T17:58:20.444Z,17.64
2019-04-30T18:00:52.049Z,17.63
2019-04-30T18:03:23.219Z,17.62
2019-04-30T18:05:55.131Z,17.59
2019-04-30T18:08:26.302Z,17.51
2019-04-30T18:10:57.479Z,17.44
2019-04-30T18:13:28.713Z,17.39
2019-04-30T18:16:00.463Z,17.30
2019-04-30T18:18:33.355Z,17.30
2019-04-30T18:21:14.759Z,17.25
2019-04-30T18:24:03.485Z,17.17
2019-04-30T18:26:37.661Z,17.06
2019-04-30T18:29:09.167Z,16.92
2019-04-30T18:31:40.405Z,16.84
2019-04-30T18:34:11.458Z,16.78
2019-04-30T18:36:42.586Z,16.71
2019-04-30T18:39:13.617Z,16.63
2019-04-30T18:41:44.851Z,16.58
2019-04-30T18:44:17.240Z,16.51
2019-04-30T18:46:49.113Z,16.45
2019-04-30T18:49:20.411Z,16.35
2019-04-30T18:51:51.467Z,16.25
2019-04-30T18:54:22.635Z,16.23
2019-04-30T18:56:54.920Z,16.22
2019-04-30T18:59:26.244Z,16.22
2019-04-30T19:01:58.437Z,16.22
2019-04-30T19:04:29.561Z,16.14
2019-04-30T19:07:03.198Z,16.10
2019-04-30T19:09:45.022Z,16.09
2019-04-30T19:12:29.005Z,16.06
2019-04-30T19:15:01.375Z,16.05
2019-04-30T19:17:34.326Z,16.01
2019-04-30T19:20:25.150Z,16.00
2019-04-30T19:22:56.339Z,16.01
2019-04-30T19:25:28.921Z,15.97
2019-04-30T19:28:11.241Z,16.00
2019-04-30T19:30:33.443Z,15.97
2019-04-30T19:33:04.622Z,15.96
2019-04-30T19:35:35.871Z,15.97
2019-04-30T19:38:09.186Z,15.95
2019-04-30T19:40:40.550Z,15.96
2019-04-30T19:43:11.602Z,15.97
2019-04-30T19:45:42.669Z,15.94
2019-04-30T19:48:16.090Z,15.93
2019-04-30T19:50:48.903Z,15.93
2019-04-30T19:53:22.093Z,15.91
2019-04-30T19:55:52.776Z,15.91
2019-04-30T19:58:29.405Z,15.89
2019-04-30T20:00:56.673Z,15.86
2019-04-30T20:03:29.293Z,15.84
2019-04-30T20:06:00.563Z,15.85
2019-04-30T20:08:31.697Z,15.85
2019-04-30T20:11:02.813Z,15.86
2019-04-30T20:13:37.155Z,15.87
2019-04-30T20:16:09.627Z,15.86
2019-04-30T20:18:40.415Z,15.83
2019-04-30T20:21:13.157Z,15.82
2019-04-30T20:23:44.294Z,15.82
2019-04-30T20:26:15.393Z,15.83
2019-04-30T20:28:46.437Z,15.82
2019-04-30T20:31:19.026Z,15.82
2019-04-30T20:33:50.289Z,15.80
2019-04-30T20:36:22.650Z,15.82
2019-04-30T20:38:55.520Z,15.80
2019-04-30T20:41:28.682Z,15.78
2019-04-30T20:43:59.892Z,15.77
2019-04-30T20:46:34.993Z,15.75
2019-04-30T20:49:04.133Z,15.74
2019-04-30T20:51:35.304Z,15.73
2019-04-30T20:54:06.469Z,15.70
2019-04-30T20:56:39.000Z,15.70
2019-04-30T20:59:10.815Z,15.66
2019-04-30T21:01:43.174Z,15.63
2019-04-30T21:04:15.279Z,15.60
2019-04-30T21:06:46.405Z,15.57
2019-04-30T21:09:17.480Z,15.53
2019-04-30T21:11:49.580Z,15.50
2019-04-30T21:14:20.694Z,15.47
2019-04-30T21:16:52.072Z,15.46
2019-04-30T21:19:23.127Z,15.44
2019-04-30T21:21:54.228Z,15.40
2019-04-30T21:24:26.397Z,15.41
2019-04-30T21:26:57.557Z,15.40
2019-04-30T21:29:29.568Z,15.39
2019-04-30T21:32:02.601Z,15.36
2019-04-30T21:34:35.364Z,15.38
2019-04-30T21:37:06.509Z,15.38
2019-04-30T21:39:37.740Z,15.39
2019-04-30T21:42:09.317Z,15.40
2019-04-30T21:44:40.646Z,15.38
2019-04-30T21:47:11.763Z,15.35
2019-04-30T21:49:42.832Z,15.30
2019-04-30T21:52:14.775Z,15.28
2019-04-30T21:54:45.825Z,15.25
2019-04-30T21:57:16.928Z,15.23
2019-04-30T21:59:48.743Z,15.20
2019-04-30T22:02:20.274Z,15.16
2019-04-30T22:04:51.295Z,15.16
2019-04-30T22:07:22.463Z,15.16
2019-04-30T22:09:53.664Z,15.17
2019-04-30T22:12:24.784Z,15.13
2019-04-30T22:14:55.824Z,15.09
2019-04-30T22:17:27.032Z,15.06
2019-04-30T22:19:59.678Z,15.05
2019-04-30T22:22:30.814Z,15.04
2019-04-30T22:25:01.887Z,15.00
2019-04-30T22:27:33.073Z,14.98
2019-04-30T22:30:08.029Z,14.99
2019-04-30T22:32:39.347Z,14.99
2019-04-30T22:35:27.078Z,14.98
2019-04-30T22:38:15.119Z,14.94
2019-04-30T22:40:46.157Z,14.91
2019-04-30T22:43:19.303Z,14.90
2019-04-30T22:45:59.574Z,14.90
2019-04-30T22:48:31.824Z,14.89
2019-04-30T22:51:02.870Z,14.88
2019-04-30T22:53:34.056Z,14.90
2019-04-30T22:56:05.164Z,14.89
2019-04-30T22:58:36.264Z,14.88
2019-04-30T23:01:27.917Z,14.88
2019-04-30T23:04:00.794Z,14.88
2019-04-30T23:06:31.843Z,14.88
2019-04-30T23:09:03.377Z,14.88
2019-04-30T23:11:35.702Z,14.88
2019-04-30T23:14:06.861Z,14.87
2019-04-30T23:16:37.905Z,14.88
2019-04-30T23:19:09.078Z,14.87
2019-04-30T23:21:40.079Z,14.87
2019-04-30T23:24:11.225Z,14.89
2019-04-30T23:26:42.254Z,14.88
2019-04-30T23:29:13.399Z,14.88
2019-04-30T23:31:44.491Z,14.88
2019-04-30T23:34:18.032Z,14.86
2019-04-30T23:36:48.544Z,14.85
2019-04-30T23:39:19.639Z,14.85
2019-04-30T23:41:50.699Z,14.84
2019-04-30T23:44:21.798Z,14.84
2019-04-30T23:46:52.746Z,14.84
2019-04-30T23:49:23.903Z,14.84
2019-04-30T23:51:54.960Z,14.81
2019-04-30T23:54:26.120Z,14.78
2019-04-30T23:56:57.242Z,14.76
2019-04-30T23:59:28.344Z,14.72
